Time;durP1;ratioP1;P1;durP2;ratioP2;P2;SDS_P1;SDS_P2;PMS_P1;PMS_P2;Temp;Humidity;BMP_temperature;BMP_pressure;BME280_temperature;BME280_humidity;BME280_pressure;Samples;Min_cycle;Max_cycle;Signal;HPM_P1;HPM_P2
2021/10/29 00:01:16;;;;;;;1.52;0.32;;;21.80;46.90;;;;;;5063230;28;20577;-41
2021/10/29 00:03:43;;;;;;;1.08;0.40;;;21.80;46.90;;;;;;5066002;28;20432;-42
2021/10/29 00:06:11;;;;;;;2.58;1.42;;;21.80;47.00;;;;;;5064897;28;20182;-41
2021/10/29 00:08:39;;;;;;;0.85;0.65;;;21.80;47.00;;;;;;5060790;28;20044;-41
2021/10/29 00:11:06;;;;;;;0.70;0.40;;;21.70;46.90;;;;;;5061076;28;20037;-45
2021/10/29 00:13:33;;;;;;;1.02;0.63;;;21.80;47.00;;;;;;5061291;28;20033;-42
2021/10/29 00:16:00;;;;;;;0.20;0.20;;;21.70;47.00;;;;;;5064137;28;20497;-40
2021/10/29 00:18:27;;;;;;;2.00;0.50;;;21.70;47.00;;;;;;5066922;28;20040;-42
2021/10/29 00:20:54;;;;;;;1.70;0.68;;;21.70;47.00;;;;;;5061232;28;20072;-40
2021/10/29 00:23:24;;;;;;;1.80;0.93;;;21.70;47.00;;;;;;5061075;28;20040;-41
2021/10/29 00:25:51;;;;;;;1.02;0.50;;;21.70;47.00;;;;;;5060647;28;20060;-44
2021/10/29 00:28:18;;;;;;;2.13;0.28;;;21.70;47.00;;;;;;5065478;28;20032;-41
2021/10/29 00:30:45;;;;;;;0.43;0.40;;;21.70;47.00;;;;;;5063163;28;20045;-42
2021/10/29 00:33:15;;;;;;;0.50;0.50;;;21.70;47.00;;;;;;5065342;28;20048;-42
2021/10/29 00:35:42;;;;;;;1.17;0.50;;;21.70;47.00;;;;;;5050286;28;20572;-42
2021/10/29 00:38:10;;;;;;;0.50;0.40;;;21.70;47.00;;;;;;5055173;28;20401;-41
2021/10/29 00:40:39;;;;;;;2.70;0.30;;;21.70;47.00;;;;;;5057606;28;20095;-42
2021/10/29 00:43:07;;;;;;;2.05;0.60;;;21.60;47.00;;;;;;5049363;28;20043;-41
2021/10/29 00:45:34;;;;;;;2.70;0.57;;;21.70;47.10;;;;;;5054607;28;20049;-42
2021/10/29 00:48:02;;;;;;;0.85;0.63;;;21.70;47.10;;;;;;5063210;28;20092;-42
2021/10/29 00:50:29;;;;;;;0.57;0.47;;;21.70;47.10;;;;;;5060249;28;20040;-41
2021/10/29 00:52:57;;;;;;;0.40;0.40;;;21.70;47.10;;;;;;5060407;28;20036;-42
2021/10/29 00:55:24;;;;;;;1.23;0.77;;;21.60;47.10;;;;;;5060668;28;20045;-42
2021/10/29 00:57:53;;;;;;;1.45;0.63;;;21.70;47.10;;;;;;5049143;28;20405;-42
2021/10/29 01:00:22;;;;;;;1.25;0.70;;;21.60;47.10;;;;;;5066147;28;20040;-42
2021/10/29 01:02:49;;;;;;;2.20;0.52;;;21.60;47.10;;;;;;5060158;28;20405;-42
2021/10/29 01:05:17;;;;;;;0.93;0.60;;;21.60;47.10;;;;;;5059765;28;20029;-41
2021/10/29 01:07:44;;;;;;;1.00;0.60;;;21.60;47.10;;;;;;5060054;28;20052;-42
2021/10/29 01:10:11;;;;;;;0.70;0.70;;;21.60;47.10;;;;;;5061601;28;20611;-42
2021/10/29 01:12:38;;;;;;;1.20;0.70;;;21.60;47.10;;;;;;5064816;28;20143;-41
2021/10/29 01:15:09;;;;;;;3.38;1.30;;;21.60;47.10;;;;;;5063769;28;20127;-42
2021/10/29 01:17:36;;;;;;;1.45;0.85;;;21.60;47.10;;;;;;5058521;28;20068;-42
2021/10/29 01:20:06;;;;;;;0.80;0.30;;;21.60;47.10;;;;;;5060167;28;20127;-42
2021/10/29 01:22:35;;;;;;;0.40;0.35;;;21.60;47.10;;;;;;5060104;28;20052;-42
2021/10/29 01:25:02;;;;;;;2.17;0.50;;;21.60;47.10;;;;;;5063449;28;20493;-42
2021/10/29 01:27:29;;;;;;;0.73;0.52;;;21.60;47.10;;;;;;5058017;28;20082;-41
2021/10/29 01:29:57;;;;;;;0.30;0.30;;;21.60;47.20;;;;;;5061658;28;20041;-41
2021/10/29 01:32:24;;;;;;;1.17;0.32;;;21.60;47.20;;;;;;5059601;28;20508;-41
2021/10/29 01:34:51;;;;;;;1.83;0.95;;;21.60;47.20;;;;;;5059668;28;20032;-41
2021/10/29 01:37:18;;;;;;;1.20;0.73;;;21.60;47.20;;;;;;5061026;28;20037;-41
2021/10/29 01:39:47;;;;;;;0.63;0.63;;;21.60;47.20;;;;;;5064550;28;20049;-41
2021/10/29 01:42:14;;;;;;;0.45;0.35;;;21.60;47.20;;;;;;5064246;28;20155;-41
2021/10/29 01:44:42;;;;;;;1.35;1.17;;;21.50;47.10;;;;;;5059518;28;20123;-41
2021/10/29 01:47:09;;;;;;;1.13;0.50;;;21.50;47.20;;;;;;5059356;28;20045;-41
2021/10/29 01:49:39;;;;;;;0.65;0.65;;;21.50;47.20;;;;;;5059265;28;20045;-41
2021/10/29 01:52:07;;;;;;;1.35;0.47;;;21.50;47.10;;;;;;5062563;28;20049;-41
2021/10/29 01:54:34;;;;;;;0.85;0.32;;;21.50;47.20;;;;;;5048232;28;20045;-41
2021/10/29 01:57:03;;;;;;;1.70;1.00;;;21.50;47.20;;;;;;5062116;28;20040;-41
2021/10/29 01:59:30;;;;;;;0.40;0.40;;;21.50;47.20;;;;;;5059315;28;20041;-41
2021/10/29 02:01:57;;;;;;;0.50;0.50;;;21.50;47.20;;;;;;5058870;28;20044;-41
2021/10/29 02:04:24;;;;;;;3.05;0.63;;;21.50;47.20;;;;;;5059482;28;20037;-41
2021/10/29 02:06:51;;;;;;;1.05;0.95;;;21.50;47.20;;;;;;5063670;28;20119;-40
2021/10/29 02:09:18;;;;;;;0.65;0.50;;;21.50;47.20;;;;;;5064309;28;20435;-40
2021/10/29 02:11:46;;;;;;;0.73;0.40;;;21.50;47.20;;;;;;5058812;28;20106;-40
2021/10/29 02:14:15;;;;;;;0.73;0.40;;;21.50;47.20;;;;;;5058776;28;20032;-40
2021/10/29 02:16:43;;;;;;;1.10;0.60;;;21.50;47.20;;;;;;5056383;28;20048;-40
2021/10/29 02:19:10;;;;;;;1.05;0.90;;;21.50;47.20;;;;;;5047412;28;20040;-40
2021/10/29 02:21:37;;;;;;;0.95;0.35;;;21.50;47.30;;;;;;5062706;28;20048;-40
2021/10/29 02:24:05;;;;;;;1.77;0.60;;;21.50;47.20;;;;;;5061911;28;20040;-40
2021/10/29 02:26:34;;;;;;;1.15;0.60;;;21.50;47.20;;;;;;5058665;28;20052;-41
2021/10/29 02:29:01;;;;;;;1.20;0.80;;;21.50;47.20;;;;;;5058342;28;20058;-40
2021/10/29 02:31:29;;;;;;;0.73;0.73;;;21.50;47.20;;;;;;5058327;28;20055;-40
2021/10/29 02:33:57;;;;;;;1.10;0.77;;;21.50;47.20;;;;;;5029642;28;20084;-39
2021/10/29 02:36:24;;;;;;;1.08;0.65;;;21.50;47.20;;;;;;5064854;28;20068;-40
2021/10/29 02:38:51;;;;;;;1.75;0.40;;;21.40;47.20;;;;;;5058999;28;20045;-40
2021/10/29 02:41:18;;;;;;;1.25;1.15;;;21.40;47.20;;;;;;5058284;28;20047;-40
2021/10/29 02:43:46;;;;;;;0.60;0.60;;;21.40;47.20;;;;;;5058218;28;20052;-40
2021/10/29 02:46:13;;;;;;;1.17;0.52;;;21.50;47.30;;;;;;5059840;28;20053;-40
2021/10/29 02:48:41;;;;;;;1.20;0.93;;;21.40;47.20;;;;;;5063558;28;20066;-41
2021/10/29 02:51:08;;;;;;;2.92;0.70;;;21.50;47.30;;;;;;5051865;28;20136;-41
2021/10/29 02:53:37;;;;;;;0.52;0.50;;;21.40;47.20;;;;;;5056073;28;20063;-40
2021/10/29 02:56:05;;;;;;;0.47;0.38;;;21.40;47.20;;;;;;5058138;28;20071;-40
2021/10/29 02:58:33;;;;;;;1.10;0.50;;;21.40;47.20;;;;;;5057999;28;20041;-41
2021/10/29 03:01:00;;;;;;;1.15;0.90;;;21.40;47.30;;;;;;5061684;28;20138;-40
2021/10/29 03:03:28;;;;;;;0.77;0.75;;;21.40;47.30;;;;;;5062311;28;20043;-40
2021/10/29 03:05:56;;;;;;;0.65;0.63;;;21.40;47.20;;;;;;5059811;28;20416;-41
2021/10/29 03:08:24;;;;;;;0.60;0.50;;;21.40;47.30;;;;;;5054807;28;20033;-41
2021/10/29 03:10:51;;;;;;;0.68;0.68;;;21.40;47.30;;;;;;5049751;28;20041;-41
2021/10/29 03:13:20;;;;;;;0.70;0.40;;;21.40;47.30;;;;;;5059219;28;20384;-40
2021/10/29 03:15:49;;;;;;;0.95;0.82;;;21.40;47.30;;;;;;5062833;28;20037;-40
2021/10/29 03:18:16;;;;;;;0.70;0.68;;;21.40;47.30;;;;;;5062572;28;20064;-41
2021/10/29 03:20:43;;;;;;;1.90;0.90;;;21.40;47.30;;;;;;5057308;28;20060;-41
2021/10/29 03:23:14;;;;;;;0.70;0.60;;;21.30;47.20;;;;;;5054671;28;20039;-41
2021/10/29 03:25:42;;;;;;;3.40;0.40;;;21.40;47.30;;;;;;5048069;28;20145;-41
2021/10/29 03:28:09;;;;;;;1.65;0.40;;;21.30;47.30;;;;;;5048804;28;20041;-41
2021/10/29 03:30:36;;;;;;;2.25;0.57;;;21.30;47.30;;;;;;5062830;28;20123;-40
2021/10/29 03:33:04;;;;;;;0.95;0.52;;;21.30;47.30;;;;;;5059284;28;20581;-41
2021/10/29 03:35:31;;;;;;;0.40;0.40;;;21.30;47.30;;;;;;5057396;28;20036;-41
2021/10/29 03:38:08;;;;;;;1.27;0.60;;;21.30;47.20;;;;;;5057540;28;20060;-41
2021/10/29 03:40:45;;;;;;;1.02;1.02;;;21.30;47.20;;;;;;5057298;28;20047;-40
2021/10/29 03:43:19;;;;;;;1.00;0.65;;;21.30;47.30;;;;;;5059377;28;20139;-41
2021/10/29 03:45:50;;;;;;;1.17;0.40;;;21.30;47.30;;;;;;5062170;28;20048;-43
2021/10/29 03:48:22;;;;;;;0.70;0.45;;;21.30;47.30;;;;;;5062486;28;20037;-41
2021/10/29 03:51:00;;;;;;;0.95;0.25;;;21.30;47.30;;;;;;5051486;28;20135;-41
2021/10/29 03:53:33;;;;;;;1.23;0.40;;;21.30;47.30;;;;;;5054150;28;20048;-41
2021/10/29 03:56:03;;;;;;;0.38;0.30;;;21.30;47.30;;;;;;5057207;28;20059;-41
2021/10/29 03:58:30;;;;;;;1.85;0.22;;;21.30;47.30;;;;;;5056751;28;20064;-41
2021/10/29 04:00:57;;;;;;;1.90;0.50;;;21.30;47.30;;;;;;5061357;28;20040;-40
2021/10/29 04:03:24;;;;;;;0.47;0.38;;;21.30;47.30;;;;;;5063634;28;20552;-41
2021/10/29 04:05:51;;;;;;;0.77;0.77;;;21.30;47.30;;;;;;5058207;28;20119;-40
2021/10/29 04:08:19;;;;;;;0.82;0.52;;;21.30;47.30;;;;;;5057065;28;20037;-41
2021/10/29 04:10:46;;;;;;;1.95;0.43;;;21.20;47.20;;;;;;5057116;28;20048;-41
2021/10/29 04:13:14;;;;;;;1.83;0.43;;;21.20;47.20;;;;;;5058957;28;20114;-41
2021/10/29 04:15:41;;;;;;;0.63;0.52;;;21.30;47.30;;;;;;5061928;28;20044;-41
2021/10/29 04:18:09;;;;;;;2.53;0.57;;;21.20;47.20;;;;;;5061391;28;20046;-41
2021/10/29 04:20:37;;;;;;;0.35;0.30;;;21.20;47.20;;;;;;5057207;28;20516;-40
2021/10/29 04:23:05;;;;;;;0.40;0.32;;;21.20;47.20;;;;;;5057201;28;20112;-41
2021/10/29 04:25:32;;;;;;;1.13;0.30;;;21.20;47.20;;;;;;5057195;28;20029;-41
2021/10/29 04:28:00;;;;;;;0.60;0.60;;;21.30;47.30;;;;;;5061021;28;20064;-41
2021/10/29 04:30:29;;;;;;;0.55;0.40;;;21.20;47.20;;;;;;5062608;28;20056;-41
2021/10/29 04:32:57;;;;;;;1.30;0.20;;;21.20;47.20;;;;;;5058562;28;20602;-41
2021/10/29 04:35:25;;;;;;;0.43;0.30;;;21.20;47.20;;;;;;5057048;28;20045;-41
2021/10/29 04:37:52;;;;;;;0.47;0.28;;;21.20;47.20;;;;;;5056961;28;20033;-43
2021/10/29 04:40:19;;;;;;;0.30;0.22;;;21.20;47.20;;;;;;5058292;28;20036;-42
2021/10/29 04:42:46;;;;;;;0.30;0.20;;;21.20;47.30;;;;;;5060798;28;20059;-41
2021/10/29 04:45:14;;;;;;;0.20;0.20;;;21.20;47.20;;;;;;5063155;28;20067;-42
2021/10/29 04:47:42;;;;;;;0.20;0.20;;;21.20;47.20;;;;;;5055184;28;20148;-41
2021/10/29 04:50:10;;;;;;;3.85;0.65;;;21.20;47.20;;;;;;5053383;28;20071;-41
2021/10/29 04:52:37;;;;;;;0.90;0.80;;;21.20;47.30;;;;;;5060578;28;20053;-41
2021/10/29 04:55:05;;;;;;;0.38;0.20;;;21.20;47.20;;;;;;5063703;28;20041;-42
2021/10/29 04:57:32;;;;;;;1.45;0.52;;;21.20;47.20;;;;;;5063865;28;20631;-42
2021/10/29 05:00:01;;;;;;;0.40;0.20;;;21.20;47.20;;;;;;5061999;28;20134;-41
2021/10/29 05:02:28;;;;;;;1.27;0.30;;;21.20;47.20;;;;;;5058515;28;20044;-41
2021/10/29 05:04:57;;;;;;;1.45;0.35;;;21.20;47.20;;;;;;5058864;28;20138;-41
2021/10/29 05:07:24;;;;;;;0.40;0.28;;;21.20;47.20;;;;;;5060682;28;20045;-41
2021/10/29 05:09:51;;;;;;;1.55;0.75;;;21.20;47.30;;;;;;5064584;28;20513;-41
2021/10/29 05:12:18;;;;;;;0.40;0.25;;;21.20;47.20;;;;;;5065241;28;20036;-41
2021/10/29 05:14:44;;;;;;;1.20;0.20;;;21.20;47.20;;;;;;5060185;28;20051;-41
2021/10/29 05:17:12;;;;;;;0.50;0.30;;;21.20;47.30;;;;;;5059913;28;20045;-41
2021/10/29 05:19:39;;;;;;;0.55;0.55;;;21.10;47.80;;;;;;5059757;28;20075;-41
2021/10/29 05:22:08;;;;;;;0.43;0.35;;;21.20;47.30;;;;;;5063247;28;20047;-41
2021/10/29 05:24:35;;;;;;;0.63;0.20;;;21.20;47.30;;;;;;5064800;28;20044;-41
2021/10/29 05:27:02;;;;;;;0.55;0.43;;;21.20;47.30;;;;;;5061680;28;20059;-41
2021/10/29 05:29:29;;;;;;;1.65;0.60;;;21.20;47.30;;;;;;5056499;28;20033;-42
2021/10/29 05:32:00;;;;;;;2.17;0.43;;;21.10;47.20;;;;;;5059880;28;20416;-41
2021/10/29 05:34:27;;;;;;;1.95;0.32;;;21.20;47.30;;;;;;5058737;28;20501;-44
2021/10/29 05:36:55;;;;;;;0.40;0.20;;;21.20;47.30;;;;;;5047923;28;20051;-41
2021/10/29 05:39:24;;;;;;;0.20;0.20;;;21.20;47.30;;;;;;5060833;28;20044;-41
2021/10/29 05:41:51;;;;;;;1.23;0.28;;;21.10;47.20;;;;;;5059966;28;20056;-41
2021/10/29 05:44:19;;;;;;;1.77;0.30;;;21.20;47.30;;;;;;5059395;28;20041;-41
2021/10/29 05:46:47;;;;;;;0.30;0.28;;;21.20;47.30;;;;;;5059232;28;20136;-41
2021/10/29 05:49:15;;;;;;;1.08;0.40;;;21.10;47.20;;;;;;5061691;28;20702;-41
2021/10/29 05:51:45;;;;;;;0.95;0.50;;;21.10;47.20;;;;;;5064265;28;20094;-41
2021/10/29 05:54:34;;;;;;;0.30;0.20;;;21.20;47.30;;;;;;5063145;28;20516;-42
2021/10/29 05:57:05;;;;;;;2.42;0.50;;;21.10;47.30;;;;;;5061654;28;20048;-41
2021/10/29 05:59:34;;;;;;;0.47;0.20;;;21.10;47.30;;;;;;5059087;28;20063;-41
2021/10/29 06:02:03;;;;;;;0.80;0.30;;;21.20;47.30;;;;;;5059236;28;20037;-41
2021/10/29 06:04:30;;;;;;;0.35;0.35;;;21.10;47.30;;;;;;5059110;28;20497;-42
2021/10/29 06:06:57;;;;;;;0.90;0.20;;;21.20;47.30;;;;;;5063572;28;20045;-42
2021/10/29 06:09:24;;;;;;;1.85;0.15;;;21.10;47.20;;;;;;5064760;28;20511;-42
2021/10/29 06:11:52;;;;;;;0.38;0.20;;;21.20;47.30;;;;;;5059542;28;20052;-42
2021/10/29 06:14:20;;;;;;;0.47;0.30;;;21.20;47.30;;;;;;5058673;28;20055;-42
2021/10/29 06:16:47;;;;;;;0.30;0.25;;;21.20;47.30;;;;;;5058764;28;20421;-42
2021/10/29 06:19:14;;;;;;;0.68;0.32;;;21.10;47.30;;;;;;5060856;28;20041;-42
2021/10/29 06:21:46;;;;;;;0.22;0.20;;;21.10;47.30;;;;;;5063947;28;20044;-42
2021/10/29 06:24:15;;;;;;;0.32;0.20;;;21.10;47.20;;;;;;5062980;28;20056;-42
2021/10/29 06:26:47;;;;;;;0.40;0.40;;;21.10;47.30;;;;;;5058570;28;20044;-42
2021/10/29 06:29:14;;;;;;;1.65;0.65;;;21.10;47.30;;;;;;5058389;28;20048;-43
2021/10/29 06:31:42;;;;;;;0.55;0.50;;;21.20;47.30;;;;;;5058488;28;20405;-42
2021/10/29 06:34:10;;;;;;;0.85;0.30;;;21.10;47.30;;;;;;5061110;28;20037;-42
2021/10/29 06:36:37;;;;;;;0.40;0.40;;;21.10;47.30;;;;;;5063408;28;20032;-42
2021/10/29 06:39:06;;;;;;;0.80;0.30;;;21.20;47.30;;;;;;5062311;28;20048;-42
2021/10/29 06:41:33;;;;;;;0.30;0.30;;;21.20;47.30;;;;;;5058333;28;20142;-42
2021/10/29 06:44:17;;;;;;;1.92;0.43;;;21.10;47.30;;;;;;5058920;28;20040;-41
2021/10/29 06:46:50;;;;;;;1.08;0.38;;;21.10;47.30;;;;;;5058453;28;20057;-42
2021/10/29 06:49:20;;;;;;;0.50;0.15;;;21.10;47.30;;;;;;5062293;28;20123;-41
2021/10/29 06:52:12;;;;;;;1.10;0.65;;;21.10;47.30;;;;;;5047113;28;20128;-43
2021/10/29 07:00:14;;;;;;;2.67;0.40;;;21.10;47.90;;;;;;5057941;28;20421;-41
2021/10/29 07:41:18;;;;;;;0.60;0.20;;;21.20;47.30;;;;;;4932776;28;20078;-42
2021/10/29 07:43:48;;;;;;;1.45;0.38;;;21.20;47.20;;;;;;4936874;29;20047;-41
2021/10/29 07:46:15;;;;;;;0.40;0.30;;;21.20;47.20;;;;;;5012511;28;20041;-41
2021/10/29 07:48:44;;;;;;;0.22;0.20;;;21.20;47.20;;;;;;5019625;28;20053;-40
2021/10/29 07:51:14;;;;;;;1.88;0.65;;;21.20;47.10;;;;;;5018953;28;20132;-41
2021/10/29 07:53:41;;;;;;;0.68;0.57;;;21.20;47.10;;;;;;4998508;28;20080;-41
2021/10/29 07:56:08;;;;;;;3.13;0.70;;;21.20;47.10;;;;;;5014971;28;20041;-41
2021/10/29 07:58:36;;;;;;;0.40;0.25;;;21.30;47.20;;;;;;5014900;28;20057;-41
2021/10/29 08:01:04;;;;;;;0.30;0.20;;;21.20;47.00;;;;;;5018762;28;20042;-41
2021/10/29 08:03:31;;;;;;;1.02;0.50;;;21.30;47.10;;;;;;5019859;28;20053;-42
2021/10/29 08:05:58;;;;;;;0.20;0.20;;;21.30;47.10;;;;;;5049029;28;20049;-41
2021/10/29 08:08:27;;;;;;;0.40;0.20;;;21.30;47.00;;;;;;5053531;28;20385;-41
2021/10/29 08:10:54;;;;;;;4.13;0.30;;;21.30;47.00;;;;;;5057208;28;20044;-41
2021/10/29 08:13:21;;;;;;;0.95;0.40;;;21.30;47.00;;;;;;5057996;28;20037;-42
2021/10/29 08:15:53;;;;;;;0.65;0.20;;;21.30;47.00;;;;;;5051734;28;20041;-41
2021/10/29 08:18:20;;;;;;;1.77;0.55;;;21.30;47.00;;;;;;5062727;28;20048;-41
2021/10/29 08:20:51;;;;;;;1.65;1.08;;;21.30;47.00;;;;;;5061045;28;20044;-41
2021/10/29 08:23:18;;;;;;;0.65;0.30;;;21.30;47.00;;;;;;5061180;28;20036;-41
2021/10/29 08:25:47;;;;;;;1.23;0.30;;;21.30;47.00;;;;;;5061001;28;20421;-41
2021/10/29 08:28:14;;;;;;;0.47;0.40;;;21.30;46.90;;;;;;5063255;28;20064;-41
2021/10/29 08:30:41;;;;;;;1.00;0.20;;;21.40;47.00;;;;;;5064320;28;20710;-41
2021/10/29 08:33:08;;;;;;;2.28;0.30;;;21.30;46.90;;;;;;5064657;28;20068;-41
2021/10/29 08:35:35;;;;;;;0.32;0.30;;;21.40;47.00;;;;;;5060758;28;20040;-41
2021/10/29 08:38:02;;;;;;;0.90;0.40;;;21.40;47.50;;;;;;5060486;28;20127;-42
2021/10/29 08:40:30;;;;;;;5.43;0.22;;;21.40;46.90;;;;;;5060855;28;20137;-42
2021/10/29 08:42:58;;;;;;;1.55;0.40;;;21.40;46.90;;;;;;5033418;28;20120;-41
2021/10/29 08:45:27;;;;;;;6.78;0.40;;;21.40;46.90;;;;;;5062922;28;20604;-41
2021/10/29 08:47:57;;;;;;;2.80;0.25;;;21.40;46.90;;;;;;5061766;28;20813;-41
2021/10/29 08:50:24;;;;;;;9.07;0.47;;;21.40;46.90;;;;;;5060658;28;20055;-41
2021/10/29 08:52:52;;;;;;;6.60;1.40;;;21.40;46.80;;;;;;5060577;28;20709;-41
2021/10/29 08:55:26;;;;;;;3.22;0.38;;;21.40;46.80;;;;;;5060298;28;20043;-41
2021/10/29 08:57:54;;;;;;;2.75;0.20;;;21.40;46.80;;;;;;5055871;28;20049;-41
2021/10/29 09:00:28;;;;;;;0.10;0.10;;;21.40;46.80;;;;;;5065998;28;20040;-41
2021/10/29 09:03:00;;;;;;;1.27;0.43;;;21.40;46.80;;;;;;5032491;28;20049;-41
2021/10/29 09:05:34;;;;;;;0.82;0.20;;;21.50;46.80;;;;;;5053679;28;20037;-41
2021/10/29 09:08:10;;;;;;;1.98;0.30;;;21.50;46.80;;;;;;5060163;28;20040;-43
2021/10/29 09:32:57;;;;;;;6.95;1.27;;;21.50;46.70;;;;;;4997865;28;20085;-42
2021/10/29 09:35:26;;;;;;;4.35;0.52;;;21.50;46.70;;;;;;4972404;28;20082;-42
2021/10/29 09:37:56;;;;;;;4.43;0.20;;;21.50;46.70;;;;;;4989583;28;20042;-42
2021/10/29 09:40:55;;;;;;;5.40;0.43;;;21.50;47.20;;;;;;4997748;28;20042;-42
2021/10/29 09:43:24;;;;;;;4.25;0.45;;;21.60;46.70;;;;;;4998464;28;20045;-42
2021/10/29 09:45:58;;;;;;;4.22;0.20;;;21.60;46.60;;;;;;5002271;28;20134;-42
2021/10/29 09:48:33;;;;;;;4.88;0.20;;;21.60;46.60;;;;;;4999289;28;20046;-42
2021/10/29 09:51:06;;;;;;;4.22;0.22;;;21.60;46.60;;;;;;4998847;28;20616;-42
2021/10/29 09:53:45;;;;;;;2.70;0.63;;;21.60;46.50;;;;;;4980611;28;20049;-42
2021/10/29 09:56:16;;;;;;;3.13;0.65;;;21.70;46.60;;;;;;4997195;28;20042;-42
2021/10/29 09:58:45;;;;;;;0.90;0.15;;;21.70;46.50;;;;;;4997189;28;20074;-42
2021/10/29 10:01:13;;;;;;;3.08;0.52;;;21.70;46.50;;;;;;5000038;28;20046;-42
2021/10/29 10:03:42;;;;;;;1.05;0.20;;;21.70;46.50;;;;;;5002119;28;20112;-39
2021/10/29 10:06:10;;;;;;;0.88;0.30;;;21.70;46.40;;;;;;4992162;28;20065;-42
2021/10/29 10:08:39;;;;;;;0.77;0.20;;;21.70;46.40;;;;;;4995022;28;20073;-42
2021/10/29 10:11:06;;;;;;;2.75;0.30;;;21.70;46.40;;;;;;5053171;28;20056;-42
2021/10/29 10:13:34;;;;;;;2.65;0.20;;;21.70;46.40;;;;;;5058867;28;20044;-42
2021/10/29 10:16:02;;;;;;;0.52;0.30;;;21.70;46.40;;;;;;5063076;28;20033;-42
2021/10/29 10:18:30;;;;;;;6.80;0.35;;;21.70;46.40;;;;;;5064797;28;20090;-47
2021/10/29 10:21:01;;;;;;;5.82;0.20;;;21.70;46.40;;;;;;5060936;28;20044;-42
2021/10/29 10:23:32;;;;;;;1.85;0.10;;;21.70;46.40;;;;;;5058734;28;20059;-43
2021/10/29 10:29:04;;;;;;;1.95;0.20;;;21.80;46.50;;;;;;5052847;28;20725;-43
2021/10/29 10:40:29;;;;;;;1.20;0.45;;;21.70;46.60;;;;;;5004898;28;20046;-42
2021/10/29 10:43:17;;;;;;;2.40;0.25;;;21.70;46.70;;;;;;4988051;28;20068;-42
2021/10/29 10:45:51;;;;;;;0.98;0.10;;;21.70;46.70;;;;;;5019288;28;20049;-42
2021/10/29 10:48:25;;;;;;;1.38;0.30;;;21.70;46.70;;;;;;5021120;28;20080;-42
2021/10/29 10:50:57;;;;;;;0.28;0.10;;;21.80;46.80;;;;;;5016402;28;20144;-42
2021/10/29 10:53:41;;;;;;;0.63;0.30;;;21.80;46.80;;;;;;5006750;28;20073;-42
2021/10/29 10:59:00;;;;;;;2.80;0.10;;;21.70;46.80;;;;;;5013020;28;20147;-42
2021/10/29 11:01:44;;;;;;;0.65;0.20;;;21.70;46.90;;;;;;5016404;28;20607;-42
2021/10/29 11:04:28;;;;;;;3.80;0.70;;;21.70;46.90;;;;;;4991201;28;20038;-42
2021/10/29 11:10:00;;;;;;;0.55;0.20;;;21.70;47.00;;;;;;5017628;28;20045;-42
2021/10/29 11:13:05;;;;;;;0.55;0.10;;;21.70;47.10;;;;;;5060055;28;20040;-43
2021/10/29 11:15:32;;;;;;;4.00;0.20;;;21.80;47.10;;;;;;5060249;28;20044;-42
2021/10/29 11:18:02;;;;;;;0.88;0.88;;;21.70;47.20;;;;;;5059456;28;20546;-42
2021/10/29 11:20:44;;;;;;;1.05;0.17;;;21.70;47.20;;;;;;5058058;28;20048;-41
2021/10/29 11:23:18;;;;;;;0.50;0.30;;;21.70;47.20;;;;;;5058046;28;20033;-42
2021/10/29 11:25:52;;;;;;;2.08;0.10;;;21.70;47.30;;;;;;5057997;28;20041;-42
2021/10/29 11:28:23;;;;;;;4.00;0.30;;;21.70;47.30;;;;;;5059428;28;20048;-42
2021/10/29 11:30:55;;;;;;;0.57;0.10;;;21.70;47.40;;;;;;5063907;28;20068;-42
2021/10/29 11:33:23;;;;;;;0.57;0.10;;;21.70;47.40;;;;;;5063748;28;20516;-42
2021/10/29 11:36:04;;;;;;;1.55;0.30;;;21.70;47.40;;;;;;5059661;28;20514;-42
2021/10/29 11:38:33;;;;;;;2.17;0.20;;;21.70;47.50;;;;;;5058041;28;20044;-42
2021/10/29 11:41:03;;;;;;;0.75;0.15;;;21.70;47.50;;;;;;5053092;28;20064;-41
2021/10/29 11:43:32;;;;;;;0.60;0.17;;;21.70;47.50;;;;;;5046452;28;20048;-41
2021/10/29 11:46:00;;;;;;;0.52;0.10;;;21.70;48.10;;;;;;5031070;28;20037;-41
2021/10/29 11:48:28;;;;;;;0.40;0.20;;;21.70;47.60;;;;;;5063312;28;20197;-41
2021/10/29 11:51:07;;;;;;;2.10;0.15;;;21.70;47.60;;;;;;5058918;28;20045;-42
2021/10/29 11:53:37;;;;;;;1.85;0.20;;;21.70;47.60;;;;;;5057150;28;20052;-41
2021/10/29 11:56:13;;;;;;;1.65;0.20;;;21.70;47.70;;;;;;5057040;28;20062;-41
2021/10/29 11:58:47;;;;;;;0.45;0.45;;;21.70;47.70;;;;;;5057504;28;20550;-42
2021/10/29 12:01:27;;;;;;;1.42;0.20;;;21.70;47.70;;;;;;5059992;28;20041;-41
2021/10/29 12:09:25;;;;;;;0.68;0.10;;;21.70;47.80;;;;;;5063118;28;20504;-42
2021/10/29 12:11:58;;;;;;;0.63;0.17;;;21.70;47.80;;;;;;5057156;28;20037;-41
2021/10/29 12:14:33;;;;;;;0.38;0.20;;;21.80;47.90;;;;;;5057262;28;20036;-41
2021/10/29 12:17:14;;;;;;;0.25;0.10;;;21.80;47.90;;;;;;5057439;28;20047;-43
2021/10/29 12:19:42;;;;;;;0.82;0.30;;;21.80;47.80;;;;;;5057422;28;20049;-41
2021/10/29 12:22:21;;;;;;;5.57;0.10;;;21.80;47.90;;;;;;5060525;28;20041;-41
2021/10/29 12:24:52;;;;;;;4.07;0.20;;;21.80;47.90;;;;;;5061732;28;20045;-42
2021/10/29 12:27:28;;;;;;;1.23;0.10;;;21.90;47.90;;;;;;5062428;28;20048;-41
2021/10/29 12:30:20;;;;;;;0.22;0.22;;;21.90;47.90;;;;;;5058343;28;20041;-41
2021/10/29 12:52:51;;;;;;;1.05;0.40;;;22.10;47.80;;;;;;4994267;28;20702;-41
2021/10/29 13:03:43;;;;;;;2.50;0.98;;;22.10;49.30;;;;;;4988122;28;20046;-49
2021/10/29 13:06:13;;;;;;;9.73;0.68;;;22.10;49.70;;;;;;4979517;28;20042;-46
2021/10/29 13:08:41;;;;;;;2.92;0.25;;;22.10;49.80;;;;;;4983158;28;20061;-46
2021/10/29 13:11:15;;;;;;;8.05;0.30;;;22.10;50.00;;;;;;4985302;28;20133;-45
2021/10/29 13:13:44;;;;;;;5.07;0.20;;;22.10;50.20;;;;;;4981260;28;20053;-48
2021/10/29 13:16:15;;;;;;;6.55;0.32;;;22.10;50.30;;;;;;4979066;28;20042;-46
2021/10/29 13:19:02;;;;;;;4.38;0.20;;;22.10;50.50;;;;;;5024088;28;20049;-47
2021/10/29 13:24:47;;;;;;;3.40;0.43;;;22.20;51.60;;;;;;5047082;28;20044;-45
2021/10/29 13:35:46;;;;;;;0.40;0.30;;;22.20;53.40;;;;;;4987616;28;20054;-46
2021/10/29 13:38:38;;;;;;;7.43;0.25;;;22.20;53.80;;;;;;4971541;28;20495;-46
2021/10/29 13:52:25;;;;;;;13.80;1.43;;;22.20;56.30;;;;;;4985555;28;20404;-44
2021/10/29 13:55:00;;;;;;;4.57;0.63;;;22.20;56.30;;;;;;4987044;28;20332;-45
2021/10/29 14:01:05;;;;;;;2.95;0.40;;;22.30;56.40;;;;;;4985074;28;20046;-46
2021/10/29 14:28:39;;;;;;;3.30;0.47;;;22.30;55.80;;;;;;4961232;28;20443;-45
2021/10/29 14:31:13;;;;;;;2.65;0.30;;;22.30;55.90;;;;;;4961575;28;20149;-46
2021/10/29 14:33:45;;;;;;;1.63;0.30;;;22.30;55.90;;;;;;4958572;28;20043;-45
2021/10/29 14:36:13;;;;;;;0.55;0.40;;;22.30;55.90;;;;;;4960105;28;20136;-47
2021/10/29 14:38:54;;;;;;;3.63;0.60;;;22.30;55.90;;;;;;4963121;28;20608;-44
2021/10/29 14:41:28;;;;;;;3.75;0.20;;;22.30;55.90;;;;;;4969263;28;20058;-45
2021/10/29 14:43:59;;;;;;;0.82;0.55;;;22.40;56.00;;;;;;4975247;28;20459;-45
2021/10/29 14:46:42;;;;;;;0.82;0.43;;;22.30;56.00;;;;;;4960833;28;21366;-45
2021/10/29 14:49:22;;;;;;;2.05;0.22;;;22.40;56.10;;;;;;5046865;28;20037;-47
2021/10/29 15:00:34;;;;;;;2.08;0.20;;;22.30;56.20;;;;;;4928470;29;20040;-45
2021/10/29 15:03:25;;;;;;;0.40;0.30;;;22.40;56.40;;;;;;4928443;29;20047;-45
2021/10/29 15:06:08;;;;;;;0.47;0.35;;;22.40;56.40;;;;;;4929030;29;20103;-50
2021/10/29 15:17:24;;;;;;;1.70;0.47;;;22.50;56.70;;;;;;4892493;29;20064;-44
2021/10/29 15:25:30;;;;;;;7.55;0.73;;;23.10;55.90;;;;;;4891993;29;20052;-51
2021/10/29 15:28:10;;;;;;;5.57;0.57;;;23.30;55.30;;;;;;4895827;29;20054;-49
2021/10/29 15:30:42;;;;;;;0.82;0.50;;;23.50;54.90;;;;;;4942592;28;20065;-53
2021/10/29 15:33:29;;;;;;;9.93;0.52;;;23.70;54.60;;;;;;4939629;29;20297;-52
2021/10/29 15:41:50;;;;;;;1.73;0.22;;;24.10;53.60;;;;;;4979155;28;20065;-56
2021/10/29 15:44:23;;;;;;;10.40;1.02;;;24.20;53.60;;;;;;4964379;28;20079;-57
2021/10/29 15:46:58;;;;;;;5.78;0.30;;;24.20;53.90;;;;;;4981277;28;20047;-56
2021/10/29 15:49:37;;;;;;;13.35;1.45;;;24.20;54.00;;;;;;4991881;28;20057;-54
2021/10/29 15:52:09;;;;;;;5.18;0.50;;;24.10;54.10;;;;;;5030906;28;20041;-55
2021/10/29 15:54:41;;;;;;;3.95;0.68;;;24.10;54.30;;;;;;5046402;28;20468;-54
2021/10/29 15:57:09;;;;;;;8.77;1.17;;;24.00;54.40;;;;;;5046868;28;20045;-55
2021/10/29 15:59:44;;;;;;;1.00;0.68;;;23.90;54.40;;;;;;5043960;28;20086;-56
2021/10/29 16:02:31;;;;;;;8.68;0.52;;;23.80;54.40;;;;;;5046151;28;20037;-57
2021/10/29 16:18:38;;;;;;;4.88;0.30;;;23.50;54.60;;;;;;4965848;28;20151;-56
2021/10/29 16:21:05;;;;;;;3.25;1.17;;;23.40;55.10;;;;;;4972860;28;20047;-56
2021/10/29 16:23:33;;;;;;;3.72;0.98;;;23.40;54.60;;;;;;4981028;28;20058;-56
2021/10/29 16:26:02;;;;;;;4.55;0.20;;;23.30;54.50;;;;;;4979972;28;20102;-56
2021/10/29 16:28:31;;;;;;;2.80;0.38;;;23.30;54.60;;;;;;4972795;28;20697;-55
2021/10/29 16:31:00;;;;;;;1.60;0.43;;;23.30;54.60;;;;;;4992824;28;20435;-56
2021/10/29 16:33:29;;;;;;;0.45;0.20;;;23.30;54.60;;;;;;4966010;28;20053;-57